KLWB/LWB METAR and TAF weather

Enter ICAO airport designator
Station Type Date Time Source
KLWB METAR 2019/08/25 02:55 UTC NOAA

KLWB 250255Z AUTO 00000KT 10SM OVC050 14/13 A3025 RMK AO2 T01440131


Station Type Date Time Source
KLWB Decoded METAR 2019/08/25 02:55 UTC NOAA

Station name not available
Aug 24, 2019 - 10:55 PM EDT / 2019.08.25 0255 UTC
Wind: Calm:0
Visibility: 10 mile(s):0
Sky conditions: overcast
Temperature: 57.9 F (14.4 C)
Dew Point: 55.6 F (13.1 C)
Relative Humidity: 91%
Pressure (altimeter): 30.25 in. Hg (1024 hPa)
ob: KLWB 250255Z AUTO 00000KT 10SM OVC050 14/13 A3025 RMK AO2 T01440131
cycle: 3

Station Type Date Time Source
KLWB TAF 2019/08/24 18:33 UTC NOAA

TAF KLWB 241731Z 2418/2518 11005KT P6SM BKN015
FM242200 12004KT P6SM SCT025
FM250600 05004KT P6SM BKN015
FM250900 05004KT 2SM BR BKN006
FM251400 10005KT P6SM BKN015

Example: see airport list